sensor_id;sensor_type;location;lat;lon;timestamp;P1;durP1;ratioP1;P2;durP2;ratioP2
47856;SDS011;33618;49.972;8.242;2022-08-25T00:01:34;2.72;;;2.53;;
47856;SDS011;33618;49.972;8.242;2022-08-25T00:04:06;4.72;;;2.67;;
47856;SDS011;33618;49.972;8.242;2022-08-25T00:06:37;4.93;;;2.03;;
47856;SDS011;33618;49.972;8.242;2022-08-25T00:09:06;3.08;;;2.13;;
47856;SDS011;33618;49.972;8.242;2022-08-25T00:11:35;5.40;;;3.72;;
47856;SDS011;33618;49.972;8.242;2022-08-25T00:14:05;2.85;;;2.15;;
47856;SDS011;33618;49.972;8.242;2022-08-25T00:16:35;5.22;;;2.50;;
47856;SDS011;33618;49.972;8.242;2022-08-25T00:19:10;2.83;;;2.25;;
47856;SDS011;33618;49.972;8.242;2022-08-25T00:21:41;3.08;;;2.40;;
47856;SDS011;33618;49.972;8.242;2022-08-25T00:27:56;4.78;;;2.60;;
47856;SDS011;33618;49.972;8.242;2022-08-25T00:30:24;7.00;;;2.70;;
47856;SDS011;33618;49.972;8.242;2022-08-25T00:32:51;3.05;;;2.00;;
47856;SDS011;33618;49.972;8.242;2022-08-25T00:35:23;2.70;;;2.00;;
47856;SDS011;33618;49.972;8.242;2022-08-25T00:37:51;3.55;;;2.10;;
47856;SDS011;33618;49.972;8.242;2022-08-25T00:40:18;4.85;;;2.13;;
47856;SDS011;33618;49.972;8.242;2022-08-25T00:42:45;3.67;;;1.88;;
47856;SDS011;33618;49.972;8.242;2022-08-25T00:52:41;3.50;;;2.35;;
47856;SDS011;33618;49.972;8.242;2022-08-25T00:55:13;2.63;;;2.08;;
47856;SDS011;33618;49.972;8.242;2022-08-25T00:57:51;2.60;;;2.08;;
47856;SDS011;33618;49.972;8.242;2022-08-25T01:02:50;3.92;;;2.00;;
47856;SDS011;33618;49.972;8.242;2022-08-25T01:05:18;3.22;;;2.25;;
47856;SDS011;33618;49.972;8.242;2022-08-25T01:07:46;2.22;;;2.00;;
47856;SDS011;33618;49.972;8.242;2022-08-25T01:10:17;4.43;;;2.40;;
47856;SDS011;33618;49.972;8.242;2022-08-25T01:12:46;7.07;;;3.83;;
47856;SDS011;33618;49.972;8.242;2022-08-25T01:15:14;2.22;;;2.03;;
47856;SDS011;33618;49.972;8.242;2022-08-25T01:20:21;2.38;;;2.10;;
47856;SDS011;33618;49.972;8.242;2022-08-25T01:22:55;6.07;;;3.30;;
47856;SDS011;33618;49.972;8.242;2022-08-25T01:25:29;4.47;;;4.07;;
47856;SDS011;33618;49.972;8.242;2022-08-25T01:28:03;7.05;;;4.82;;
47856;SDS011;33618;49.972;8.242;2022-08-25T01:30:33;5.32;;;3.42;;
47856;SDS011;33618;49.972;8.242;2022-08-25T01:33:03;3.28;;;2.25;;
47856;SDS011;33618;49.972;8.242;2022-08-25T01:35:31;7.57;;;2.55;;
47856;SDS011;33618;49.972;8.242;2022-08-25T01:37:59;3.13;;;2.80;;
47856;SDS011;33618;49.972;8.242;2022-08-25T01:40:27;4.03;;;2.40;;
47856;SDS011;33618;49.972;8.242;2022-08-25T01:57:01;4.32;;;2.83;;
47856;SDS011;33618;49.972;8.242;2022-08-25T01:59:28;2.50;;;2.30;;
47856;SDS011;33618;49.972;8.242;2022-08-25T02:01:55;5.68;;;2.95;;
47856;SDS011;33618;49.972;8.242;2022-08-25T02:04:26;3.08;;;2.42;;
47856;SDS011;33618;49.972;8.242;2022-08-25T02:06:58;2.42;;;2.20;;
47856;SDS011;33618;49.972;8.242;2022-08-25T02:09:26;2.63;;;2.40;;
47856;SDS011;33618;49.972;8.242;2022-08-25T02:11:54;3.47;;;2.08;;
47856;SDS011;33618;49.972;8.242;2022-08-25T02:14:22;4.22;;;2.42;;
47856;SDS011;33618;49.972;8.242;2022-08-25T02:16:50;3.60;;;2.40;;
47856;SDS011;33618;49.972;8.242;2022-08-25T02:19:20;4.22;;;2.47;;
47856;SDS011;33618;49.972;8.242;2022-08-25T02:21:49;4.40;;;2.88;;
47856;SDS011;33618;49.972;8.242;2022-08-25T02:24:16;3.42;;;2.70;;
47856;SDS011;33618;49.972;8.242;2022-08-25T02:26:44;2.72;;;2.53;;
47856;SDS011;33618;49.972;8.242;2022-08-25T02:29:11;3.35;;;2.40;;
47856;SDS011;33618;49.972;8.242;2022-08-25T02:31:39;2.70;;;2.50;;
47856;SDS011;33618;49.972;8.242;2022-08-25T02:34:06;4.97;;;3.00;;
47856;SDS011;33618;49.972;8.242;2022-08-25T02:36:35;4.32;;;2.50;;
47856;SDS011;33618;49.972;8.242;2022-08-25T02:39:04;4.85;;;2.65;;
47856;SDS011;33618;49.972;8.242;2022-08-25T02:41:33;4.95;;;2.47;;
47856;SDS011;33618;49.972;8.242;2022-08-25T02:44:01;2.50;;;2.30;;
47856;SDS011;33618;49.972;8.242;2022-08-25T02:49:53;3.63;;;2.55;;
47856;SDS011;33618;49.972;8.242;2022-08-25T02:52:20;3.10;;;2.60;;
47856;SDS011;33618;49.972;8.242;2022-08-25T02:54:47;2.92;;;2.63;;
47856;SDS011;33618;49.972;8.242;2022-08-25T02:57:14;3.13;;;2.40;;
47856;SDS011;33618;49.972;8.242;2022-08-25T02:59:43;2.90;;;2.67;;
47856;SDS011;33618;49.972;8.242;2022-08-25T03:02:14;3.53;;;2.45;;
47856;SDS011;33618;49.972;8.242;2022-08-25T03:04:42;2.60;;;2.28;;
47856;SDS011;33618;49.972;8.242;2022-08-25T03:07:09;2.90;;;2.58;;
47856;SDS011;33618;49.972;8.242;2022-08-25T03:09:37;3.55;;;2.40;;
47856;SDS011;33618;49.972;8.242;2022-08-25T03:12:07;3.83;;;2.50;;
47856;SDS011;33618;49.972;8.242;2022-08-25T03:14:34;4.60;;;2.70;;
47856;SDS011;33618;49.972;8.242;2022-08-25T03:17:02;3.83;;;2.70;;
47856;SDS011;33618;49.972;8.242;2022-08-25T03:19:34;3.00;;;2.70;;
47856;SDS011;33618;49.972;8.242;2022-08-25T03:22:01;2.53;;;2.33;;
47856;SDS011;33618;49.972;8.242;2022-08-25T03:24:28;3.00;;;2.80;;
47856;SDS011;33618;49.972;8.242;2022-08-25T03:26:55;2.83;;;2.45;;
47856;SDS011;33618;49.972;8.242;2022-08-25T03:29:24;3.00;;;2.47;;
47856;SDS011;33618;49.972;8.242;2022-08-25T03:31:53;2.78;;;2.47;;
47856;SDS011;33618;49.972;8.242;2022-08-25T03:34:24;3.70;;;2.85;;
47856;SDS011;33618;49.972;8.242;2022-08-25T03:36:53;5.90;;;2.65;;
47856;SDS011;33618;49.972;8.242;2022-08-25T03:39:22;4.35;;;2.75;;
47856;SDS011;33618;49.972;8.242;2022-08-25T03:41:50;5.75;;;2.80;;
47856;SDS011;33618;49.972;8.242;2022-08-25T03:44:18;8.82;;;3.08;;
47856;SDS011;33618;49.972;8.242;2022-08-25T03:50:13;3.58;;;2.85;;
47856;SDS011;33618;49.972;8.242;2022-08-25T03:52:43;3.08;;;2.88;;
47856;SDS011;33618;49.972;8.242;2022-08-25T03:55:11;5.25;;;3.00;;
47856;SDS011;33618;49.972;8.242;2022-08-25T03:57:42;3.67;;;3.10;;
47856;SDS011;33618;49.972;8.242;2022-08-25T04:00:09;4.15;;;2.90;;
47856;SDS011;33618;49.972;8.242;2022-08-25T04:02:40;3.33;;;2.90;;
47856;SDS011;33618;49.972;8.242;2022-08-25T04:05:08;3.45;;;3.15;;
47856;SDS011;33618;49.972;8.242;2022-08-25T04:07:41;3.95;;;2.90;;
47856;SDS011;33618;49.972;8.242;2022-08-25T04:10:08;3.60;;;3.15;;
47856;SDS011;33618;49.972;8.242;2022-08-25T04:12:36;3.55;;;3.05;;
47856;SDS011;33618;49.972;8.242;2022-08-25T04:15:08;3.80;;;3.08;;
47856;SDS011;33618;49.972;8.242;2022-08-25T04:17:36;4.35;;;3.05;;
47856;SDS011;33618;49.972;8.242;2022-08-25T04:20:06;3.83;;;3.38;;
47856;SDS011;33618;49.972;8.242;2022-08-25T04:22:39;3.78;;;3.20;;
47856;SDS011;33618;49.972;8.242;2022-08-25T04:25:10;3.63;;;3.33;;
47856;SDS011;33618;49.972;8.242;2022-08-25T04:27:43;4.63;;;4.10;;
47856;SDS011;33618;49.972;8.242;2022-08-25T04:30:10;4.45;;;3.20;;
47856;SDS011;33618;49.972;8.242;2022-08-25T04:32:38;4.15;;;3.75;;
47856;SDS011;33618;49.972;8.242;2022-08-25T04:35:05;4.63;;;3.67;;
47856;SDS011;33618;49.972;8.242;2022-08-25T04:37:35;4.07;;;3.35;;
47856;SDS011;33618;49.972;8.242;2022-08-25T04:40:02;4.75;;;3.80;;
47856;SDS011;33618;49.972;8.242;2022-08-25T04:42:30;4.00;;;3.70;;
47856;SDS011;33618;49.972;8.242;2022-08-25T04:44:57;4.97;;;3.88;;
47856;SDS011;33618;49.972;8.242;2022-08-25T04:50:56;4.30;;;3.90;;
47856;SDS011;33618;49.972;8.242;2022-08-25T04:53:23;4.40;;;4.00;;
47856;SDS011;33618;49.972;8.242;2022-08-25T04:55:50;4.30;;;3.60;;
47856;SDS011;33618;49.972;8.242;2022-08-25T04:58:17;6.43;;;4.10;;
47856;SDS011;33618;49.972;8.242;2022-08-25T05:00:46;6.38;;;3.95;;
47856;SDS011;33618;49.972;8.242;2022-08-25T05:03:14;7.40;;;3.97;;
47856;SDS011;33618;49.972;8.242;2022-08-25T05:05:42;5.90;;;3.92;;
47856;SDS011;33618;49.972;8.242;2022-08-25T05:08:09;4.60;;;3.75;;
47856;SDS011;33618;49.972;8.242;2022-08-25T05:10:39;5.75;;;3.72;;
47856;SDS011;33618;49.972;8.242;2022-08-25T05:13:10;5.55;;;3.63;;
47856;SDS011;33618;49.972;8.242;2022-08-25T05:15:37;4.03;;;3.72;;
47856;SDS011;33618;49.972;8.242;2022-08-25T05:18:17;5.05;;;3.70;;
47856;SDS011;33618;49.972;8.242;2022-08-25T05:20:45;5.63;;;3.72;;
47856;SDS011;33618;49.972;8.242;2022-08-25T05:23:12;4.55;;;3.83;;
47856;SDS011;33618;49.972;8.242;2022-08-25T05:25:46;11.35;;;3.90;;
47856;SDS011;33618;49.972;8.242;2022-08-25T05:28:15;6.80;;;3.75;;
47856;SDS011;33618;49.972;8.242;2022-08-25T05:30:49;6.80;;;3.97;;
47856;SDS011;33618;49.972;8.242;2022-08-25T05:33:16;7.55;;;3.90;;
47856;SDS011;33618;49.972;8.242;2022-08-25T05:35:43;6.60;;;3.88;;
47856;SDS011;33618;49.972;8.242;2022-08-25T05:38:10;5.32;;;3.65;;
47856;SDS011;33618;49.972;8.242;2022-08-25T05:40:43;7.63;;;4.38;;
47856;SDS011;33618;49.972;8.242;2022-08-25T05:43:10;4.90;;;4.18;;
47856;SDS011;33618;49.972;8.242;2022-08-25T05:45:40;7.68;;;4.22;;
47856;SDS011;33618;49.972;8.242;2022-08-25T05:56:18;6.25;;;4.45;;
47856;SDS011;33618;49.972;8.242;2022-08-25T05:58:48;4.97;;;4.13;;
47856;SDS011;33618;49.972;8.242;2022-08-25T06:01:26;8.43;;;5.28;;
47856;SDS011;33618;49.972;8.242;2022-08-25T06:04:23;8.55;;;5.28;;
47856;SDS011;33618;49.972;8.242;2022-08-25T06:06:51;12.90;;;6.13;;
47856;SDS011;33618;49.972;8.242;2022-08-25T06:09:25;6.85;;;5.40;;
47856;SDS011;33618;49.972;8.242;2022-08-25T06:15:19;5.72;;;4.68;;
47856;SDS011;33618;49.972;8.242;2022-08-25T06:21:16;5.50;;;5.00;;
47856;SDS011;33618;49.972;8.242;2022-08-25T06:23:44;6.20;;;4.47;;
47856;SDS011;33618;49.972;8.242;2022-08-25T06:29:35;6.88;;;5.15;;
47856;SDS011;33618;49.972;8.242;2022-08-25T06:32:08;7.22;;;4.88;;
47856;SDS011;33618;49.972;8.242;2022-08-25T06:34:35;5.43;;;4.78;;
47856;SDS011;33618;49.972;8.242;2022-08-25T06:37:16;15.02;;;8.60;;
47856;SDS011;33618;49.972;8.242;2022-08-25T06:39:43;10.32;;;7.35;;
47856;SDS011;33618;49.972;8.242;2022-08-25T06:42:10;8.70;;;5.30;;
47856;SDS011;33618;49.972;8.242;2022-08-25T06:45:00;10.00;;;5.28;;
47856;SDS011;33618;49.972;8.242;2022-08-25T06:47:28;7.57;;;5.15;;
47856;SDS011;33618;49.972;8.242;2022-08-25T06:50:04;6.32;;;5.03;;
47856;SDS011;33618;49.972;8.242;2022-08-25T06:52:31;6.18;;;5.07;;
47856;SDS011;33618;49.972;8.242;2022-08-25T06:54:58;7.10;;;5.18;;
47856;SDS011;33618;49.972;8.242;2022-08-25T06:57:31;6.20;;;5.30;;
47856;SDS011;33618;49.972;8.242;2022-08-25T07:00:04;9.18;;;5.20;;
47856;SDS011;33618;49.972;8.242;2022-08-25T07:02:33;8.85;;;5.22;;
47856;SDS011;33618;49.972;8.242;2022-08-25T07:05:01;6.72;;;5.03;;
47856;SDS011;33618;49.972;8.242;2022-08-25T07:07:30;8.23;;;4.95;;
47856;SDS011;33618;49.972;8.242;2022-08-25T07:10:09;9.27;;;4.97;;
47856;SDS011;33618;49.972;8.242;2022-08-25T07:12:38;6.43;;;5.70;;
47856;SDS011;33618;49.972;8.242;2022-08-25T07:15:10;10.20;;;6.70;;
47856;SDS011;33618;49.972;8.242;2022-08-25T07:17:46;10.13;;;5.25;;
47856;SDS011;33618;49.972;8.242;2022-08-25T07:20:14;7.22;;;5.47;;
47856;SDS011;33618;49.972;8.242;2022-08-25T07:22:44;12.40;;;6.72;;
47856;SDS011;33618;49.972;8.242;2022-08-25T07:25:12;12.30;;;5.70;;
47856;SDS011;33618;49.972;8.242;2022-08-25T07:34:48;10.95;;;5.07;;
47856;SDS011;33618;49.972;8.242;2022-08-25T07:37:36;8.18;;;5.80;;
47856;SDS011;33618;49.972;8.242;2022-08-25T07:40:16;8.73;;;5.43;;
47856;SDS011;33618;49.972;8.242;2022-08-25T07:42:48;12.40;;;5.53;;
47856;SDS011;33618;49.972;8.242;2022-08-25T07:45:28;7.35;;;6.25;;
47856;SDS011;33618;49.972;8.242;2022-08-25T07:48:07;10.10;;;5.47;;
47856;SDS011;33618;49.972;8.242;2022-08-25T07:50:43;6.45;;;5.75;;
47856;SDS011;33618;49.972;8.242;2022-08-25T07:53:14;10.55;;;5.45;;
47856;SDS011;33618;49.972;8.242;2022-08-25T07:58:18;6.40;;;5.55;;
47856;SDS011;33618;49.972;8.242;2022-08-25T08:00:57;17.42;;;5.70;;
47856;SDS011;33618;49.972;8.242;2022-08-25T08:03:36;6.07;;;5.43;;
47856;SDS011;33618;49.972;8.242;2022-08-25T08:06:18;6.75;;;5.47;;
47856;SDS011;33618;49.972;8.242;2022-08-25T08:08:54;8.55;;;5.30;;
47856;SDS011;33618;49.972;8.242;2022-08-25T08:11:25;9.80;;;5.82;;
47856;SDS011;33618;49.972;8.242;2022-08-25T08:13:58;7.93;;;5.70;;
47856;SDS011;33618;49.972;8.242;2022-08-25T08:16:27;5.72;;;4.90;;
47856;SDS011;33618;49.972;8.242;2022-08-25T08:19:03;6.07;;;5.57;;
47856;SDS011;33618;49.972;8.242;2022-08-25T08:21:32;9.88;;;5.30;;
47856;SDS011;33618;49.972;8.242;2022-08-25T08:24:09;6.38;;;5.40;;
47856;SDS011;33618;49.972;8.242;2022-08-25T08:34:25;6.55;;;5.35;;
47856;SDS011;33618;49.972;8.242;2022-08-25T08:37:02;5.95;;;5.35;;
47856;SDS011;33618;49.972;8.242;2022-08-25T08:39:30;7.85;;;5.13;;
47856;SDS011;33618;49.972;8.242;2022-08-25T08:47:46;6.97;;;5.15;;
47856;SDS011;33618;49.972;8.242;2022-08-25T08:56:46;7.60;;;5.05;;
47856;SDS011;33618;49.972;8.242;2022-08-25T08:59:16;6.15;;;5.55;;
47856;SDS011;33618;49.972;8.242;2022-08-25T09:01:56;7.05;;;5.10;;
47856;SDS011;33618;49.972;8.242;2022-08-25T09:04:41;8.15;;;5.45;;
47856;SDS011;33618;49.972;8.242;2022-08-25T09:07:18;5.68;;;5.15;;
47856;SDS011;33618;49.972;8.242;2022-08-25T09:10:09;12.05;;;5.57;;
47856;SDS011;33618;49.972;8.242;2022-08-25T09:21:23;5.80;;;5.10;;
47856;SDS011;33618;49.972;8.242;2022-08-25T09:30:44;9.23;;;5.05;;
47856;SDS011;33618;49.972;8.242;2022-08-25T09:33:19;6.82;;;5.50;;
47856;SDS011;33618;49.972;8.242;2022-08-25T09:35:51;6.82;;;5.00;;
47856;SDS011;33618;49.972;8.242;2022-08-25T09:38:29;5.68;;;4.68;;
47856;SDS011;33618;49.972;8.242;2022-08-25T09:41:07;6.93;;;4.90;;
47856;SDS011;33618;49.972;8.242;2022-08-25T09:43:35;9.15;;;4.80;;
47856;SDS011;33618;49.972;8.242;2022-08-25T09:46:24;6.97;;;5.38;;
47856;SDS011;33618;49.972;8.242;2022-08-25T09:49:19;5.38;;;4.80;;
47856;SDS011;33618;49.972;8.242;2022-08-25T09:51:46;5.15;;;4.68;;
47856;SDS011;33618;49.972;8.242;2022-08-25T09:54:23;7.68;;;4.70;;
47856;SDS011;33618;49.972;8.242;2022-08-25T10:00:12;17.05;;;5.55;;
47856;SDS011;33618;49.972;8.242;2022-08-25T10:02:40;10.15;;;5.35;;
47856;SDS011;33618;49.972;8.242;2022-08-25T10:05:20;4.65;;;4.25;;
47856;SDS011;33618;49.972;8.242;2022-08-25T10:07:59;4.78;;;4.38;;
47856;SDS011;33618;49.972;8.242;2022-08-25T10:10:54;5.57;;;4.95;;
47856;SDS011;33618;49.972;8.242;2022-08-25T10:13:44;9.32;;;5.10;;
47856;SDS011;33618;49.972;8.242;2022-08-25T10:16:28;4.40;;;4.00;;
47856;SDS011;33618;49.972;8.242;2022-08-25T10:24:40;5.32;;;4.32;;
47856;SDS011;33618;49.972;8.242;2022-08-25T10:37:59;4.00;;;3.70;;
47856;SDS011;33618;49.972;8.242;2022-08-25T10:46:42;4.20;;;3.80;;
47856;SDS011;33618;49.972;8.242;2022-08-25T10:49:36;6.40;;;3.83;;
47856;SDS011;33618;49.972;8.242;2022-08-25T10:57:37;5.13;;;3.90;;
47856;SDS011;33618;49.972;8.242;2022-08-25T11:00:26;4.00;;;3.70;;
47856;SDS011;33618;49.972;8.242;2022-08-25T11:06:44;5.72;;;4.15;;
47856;SDS011;33618;49.972;8.242;2022-08-25T11:09:20;4.38;;;3.95;;
47856;SDS011;33618;49.972;8.242;2022-08-25T11:12:03;4.50;;;4.00;;
47856;SDS011;33618;49.972;8.242;2022-08-25T11:18:12;4.47;;;3.88;;
47856;SDS011;33618;49.972;8.242;2022-08-25T11:23:52;4.20;;;3.90;;
47856;SDS011;33618;49.972;8.242;2022-08-25T11:26:36;4.30;;;3.90;;
47856;SDS011;33618;49.972;8.242;2022-08-25T11:44:44;4.45;;;4.05;;
47856;SDS011;33618;49.972;8.242;2022-08-25T11:47:36;6.20;;;3.90;;
47856;SDS011;33618;49.972;8.242;2022-08-25T11:58:28;4.35;;;3.95;;
47856;SDS011;33618;49.972;8.242;2022-08-25T12:01:57;4.13;;;3.83;;
47856;SDS011;33618;49.972;8.242;2022-08-25T12:07:15;4.25;;;3.50;;
47856;SDS011;33618;49.972;8.242;2022-08-25T12:59:57;4.72;;;4.30;;
47856;SDS011;33618;49.972;8.242;2022-08-25T13:12:08;4.35;;;3.95;;
47856;SDS011;33618;49.972;8.242;2022-08-25T13:18:19;3.70;;;3.40;;
47856;SDS011;33618;49.972;8.242;2022-08-25T13:21:16;4.50;;;3.55;;
47856;SDS011;33618;49.972;8.242;2022-08-25T13:23:55;4.00;;;3.70;;
47856;SDS011;33618;49.972;8.242;2022-08-25T13:26:40;4.40;;;4.00;;
47856;SDS011;33618;49.972;8.242;2022-08-25T13:29:29;3.70;;;3.40;;
47856;SDS011;33618;49.972;8.242;2022-08-25T13:32:10;6.65;;;3.70;;
47856;SDS011;33618;49.972;8.242;2022-08-25T13:34:41;3.60;;;3.33;;
47856;SDS011;33618;49.972;8.242;2022-08-25T13:37:17;7.00;;;3.95;;
47856;SDS011;33618;49.972;8.242;2022-08-25T13:43:02;4.38;;;3.80;;
47856;SDS011;33618;49.972;8.242;2022-08-25T13:45:32;3.83;;;3.53;;
47856;SDS011;33618;49.972;8.242;2022-08-25T13:48:09;3.63;;;3.05;;
47856;SDS011;33618;49.972;8.242;2022-08-25T13:50:51;10.07;;;9.27;;
47856;SDS011;33618;49.972;8.242;2022-08-25T13:53:25;4.25;;;3.95;;
47856;SDS011;33618;49.972;8.242;2022-08-25T13:55:57;3.63;;;3.30;;
47856;SDS011;33618;49.972;8.242;2022-08-25T13:58:34;2.97;;;2.78;;
47856;SDS011;33618;49.972;8.242;2022-08-25T14:01:25;3.15;;;2.78;;
47856;SDS011;33618;49.972;8.242;2022-08-25T14:12:30;3.47;;;3.28;;
47856;SDS011;33618;49.972;8.242;2022-08-25T14:17:40;3.40;;;3.10;;
47856;SDS011;33618;49.972;8.242;2022-08-25T14:20:23;4.50;;;3.10;;
47856;SDS011;33618;49.972;8.242;2022-08-25T14:23:23;4.63;;;3.22;;
47856;SDS011;33618;49.972;8.242;2022-08-25T14:25:56;3.05;;;2.85;;
47856;SDS011;33618;49.972;8.242;2022-08-25T14:28:29;5.28;;;2.78;;
47856;SDS011;33618;49.972;8.242;2022-08-25T14:30:58;3.25;;;2.97;;
47856;SDS011;33618;49.972;8.242;2022-08-25T14:33:56;2.95;;;2.70;;
47856;SDS011;33618;49.972;8.242;2022-08-25T14:36:27;2.60;;;2.50;;
47856;SDS011;33618;49.972;8.242;2022-08-25T14:38:57;3.03;;;2.83;;
47856;SDS011;33618;49.972;8.242;2022-08-25T14:41:26;3.55;;;3.10;;
47856;SDS011;33618;49.972;8.242;2022-08-25T14:43:54;2.60;;;2.50;;
47856;SDS011;33618;49.972;8.242;2022-08-25T14:46:22;3.10;;;2.80;;
47856;SDS011;33618;49.972;8.242;2022-08-25T14:49:00;2.80;;;2.60;;
47856;SDS011;33618;49.972;8.242;2022-08-25T14:51:30;3.05;;;2.30;;
47856;SDS011;33618;49.972;8.242;2022-08-25T14:54:02;3.28;;;2.60;;
47856;SDS011;33618;49.972;8.242;2022-08-25T14:56:32;2.95;;;2.75;;
47856;SDS011;33618;49.972;8.242;2022-08-25T14:58:59;2.78;;;2.60;;
47856;SDS011;33618;49.972;8.242;2022-08-25T15:01:27;2.72;;;2.53;;
47856;SDS011;33618;49.972;8.242;2022-08-25T15:04:15;3.00;;;2.80;;
47856;SDS011;33618;49.972;8.242;2022-08-25T15:06:50;3.10;;;2.80;;
47856;SDS011;33618;49.972;8.242;2022-08-25T15:09:23;3.45;;;3.25;;
47856;SDS011;33618;49.972;8.242;2022-08-25T15:11:58;2.90;;;2.60;;
47856;SDS011;33618;49.972;8.242;2022-08-25T15:14:25;2.90;;;2.70;;
47856;SDS011;33618;49.972;8.242;2022-08-25T15:16:58;4.32;;;2.85;;
47856;SDS011;33618;49.972;8.242;2022-08-25T15:19:25;2.90;;;2.60;;
47856;SDS011;33618;49.972;8.242;2022-08-25T15:21:53;4.35;;;2.90;;
47856;SDS011;33618;49.972;8.242;2022-08-25T15:24:25;2.63;;;2.42;;
47856;SDS011;33618;49.972;8.242;2022-08-25T15:26:53;3.00;;;2.50;;
47856;SDS011;33618;49.972;8.242;2022-08-25T15:29:24;3.15;;;2.83;;
47856;SDS011;33618;49.972;8.242;2022-08-25T15:31:55;2.92;;;2.72;;
47856;SDS011;33618;49.972;8.242;2022-08-25T15:34:24;6.05;;;4.90;;
47856;SDS011;33618;49.972;8.242;2022-08-25T15:36:51;2.92;;;2.70;;
47856;SDS011;33618;49.972;8.242;2022-08-25T15:46:42;3.05;;;2.40;;
47856;SDS011;33618;49.972;8.242;2022-08-25T15:49:16;2.72;;;2.53;;
47856;SDS011;33618;49.972;8.242;2022-08-25T15:51:49;2.70;;;2.50;;
47856;SDS011;33618;49.972;8.242;2022-08-25T15:54:20;2.90;;;2.63;;
47856;SDS011;33618;49.972;8.242;2022-08-25T15:56:48;2.53;;;2.33;;
47856;SDS011;33618;49.972;8.242;2022-08-25T15:59:17;5.60;;;2.60;;
47856;SDS011;33618;49.972;8.242;2022-08-25T16:01:47;2.70;;;2.50;;
47856;SDS011;33618;49.972;8.242;2022-08-25T16:04:23;2.78;;;2.58;;
47856;SDS011;33618;49.972;8.242;2022-08-25T16:06:52;4.10;;;2.60;;
47856;SDS011;33618;49.972;8.242;2022-08-25T16:09:20;2.38;;;2.15;;
47856;SDS011;33618;49.972;8.242;2022-08-25T16:11:48;2.60;;;2.40;;
47856;SDS011;33618;49.972;8.242;2022-08-25T16:14:25;2.72;;;2.53;;
47856;SDS011;33618;49.972;8.242;2022-08-25T16:16:53;4.25;;;2.85;;
47856;SDS011;33618;49.972;8.242;2022-08-25T16:19:28;2.70;;;2.53;;
47856;SDS011;33618;49.972;8.242;2022-08-25T16:21:56;3.05;;;2.60;;
47856;SDS011;33618;49.972;8.242;2022-08-25T16:24:25;2.78;;;2.50;;
47856;SDS011;33618;49.972;8.242;2022-08-25T16:26:55;3.03;;;2.70;;
47856;SDS011;33618;49.972;8.242;2022-08-25T16:29:37;2.67;;;2.47;;
47856;SDS011;33618;49.972;8.242;2022-08-25T16:32:05;2.63;;;2.50;;
47856;SDS011;33618;49.972;8.242;2022-08-25T16:34:33;3.25;;;2.80;;
47856;SDS011;33618;49.972;8.242;2022-08-25T16:37:01;3.30;;;2.65;;
47856;SDS011;33618;49.972;8.242;2022-08-25T16:42:53;2.75;;;2.55;;
47856;SDS011;33618;49.972;8.242;2022-08-25T16:45:20;4.72;;;2.70;;
47856;SDS011;33618;49.972;8.242;2022-08-25T16:47:47;2.80;;;2.60;;
47856;SDS011;33618;49.972;8.242;2022-08-25T16:50:15;2.78;;;2.58;;
47856;SDS011;33618;49.972;8.242;2022-08-25T16:52:42;3.03;;;2.72;;
47856;SDS011;33618;49.972;8.242;2022-08-25T16:55:33;3.25;;;2.95;;
47856;SDS011;33618;49.972;8.242;2022-08-25T16:58:04;9.05;;;8.15;;
47856;SDS011;33618;49.972;8.242;2022-08-25T17:00:34;3.13;;;2.92;;
47856;SDS011;33618;49.972;8.242;2022-08-25T17:03:03;2.97;;;2.75;;
47856;SDS011;33618;49.972;8.242;2022-08-25T17:05:32;3.97;;;2.63;;
47856;SDS011;33618;49.972;8.242;2022-08-25T17:08:04;4.78;;;2.60;;
47856;SDS011;33618;49.972;8.242;2022-08-25T17:10:50;2.88;;;2.67;;
47856;SDS011;33618;49.972;8.242;2022-08-25T17:13:18;2.78;;;2.58;;
47856;SDS011;33618;49.972;8.242;2022-08-25T17:15:46;2.88;;;2.67;;
47856;SDS011;33618;49.972;8.242;2022-08-25T17:18:17;2.75;;;2.65;;
47856;SDS011;33618;49.972;8.242;2022-08-25T17:20:45;2.90;;;2.63;;
47856;SDS011;33618;49.972;8.242;2022-08-25T17:23:16;2.90;;;2.70;;
47856;SDS011;33618;49.972;8.242;2022-08-25T17:25:46;3.00;;;2.80;;
47856;SDS011;33618;49.972;8.242;2022-08-25T17:28:15;3.25;;;3.05;;
47856;SDS011;33618;49.972;8.242;2022-08-25T17:30:44;3.25;;;2.95;;
47856;SDS011;33618;49.972;8.242;2022-08-25T17:33:11;3.20;;;3.00;;
47856;SDS011;33618;49.972;8.242;2022-08-25T17:35:40;3.25;;;2.95;;
47856;SDS011;33618;49.972;8.242;2022-08-25T17:38:09;6.05;;;3.10;;
47856;SDS011;33618;49.972;8.242;2022-08-25T17:44:03;3.60;;;3.30;;
47856;SDS011;33618;49.972;8.242;2022-08-25T17:46:30;3.53;;;3.22;;
47856;SDS011;33618;49.972;8.242;2022-08-25T17:48:58;3.05;;;2.85;;
47856;SDS011;33618;49.972;8.242;2022-08-25T17:51:25;3.90;;;3.40;;
47856;SDS011;33618;49.972;8.242;2022-08-25T17:53:57;3.60;;;3.10;;
47856;SDS011;33618;49.972;8.242;2022-08-25T17:56:24;3.88;;;2.90;;
47856;SDS011;33618;49.972;8.242;2022-08-25T17:58:53;3.47;;;2.88;;
47856;SDS011;33618;49.972;8.242;2022-08-25T18:03:50;6.22;;;3.42;;
47856;SDS011;33618;49.972;8.242;2022-08-25T18:06:18;3.10;;;2.90;;
47856;SDS011;33618;49.972;8.242;2022-08-25T18:08:46;3.25;;;3.05;;
47856;SDS011;33618;49.972;8.242;2022-08-25T18:11:24;2.92;;;2.72;;
47856;SDS011;33618;49.972;8.242;2022-08-25T18:13:51;3.83;;;2.90;;
47856;SDS011;33618;49.972;8.242;2022-08-25T18:16:19;3.10;;;2.90;;
47856;SDS011;33618;49.972;8.242;2022-08-25T18:18:48;3.47;;;3.17;;
47856;SDS011;33618;49.972;8.242;2022-08-25T18:21:17;4.22;;;3.33;;
47856;SDS011;33618;49.972;8.242;2022-08-25T18:23:47;4.30;;;3.17;;
47856;SDS011;33618;49.972;8.242;2022-08-25T18:26:15;3.13;;;2.90;;
47856;SDS011;33618;49.972;8.242;2022-08-25T18:28:47;4.55;;;3.22;;
47856;SDS011;33618;49.972;8.242;2022-08-25T18:31:14;2.97;;;2.78;;
47856;SDS011;33618;49.972;8.242;2022-08-25T18:33:45;3.75;;;3.45;;
47856;SDS011;33618;49.972;8.242;2022-08-25T18:36:12;3.40;;;3.10;;
47856;SDS011;33618;49.972;8.242;2022-08-25T18:38:39;4.95;;;3.20;;
47856;SDS011;33618;49.972;8.242;2022-08-25T18:48:50;4.13;;;3.15;;
47856;SDS011;33618;49.972;8.242;2022-08-25T18:51:18;3.38;;;3.08;;
47856;SDS011;33618;49.972;8.242;2022-08-25T18:53:48;3.05;;;2.75;;
47856;SDS011;33618;49.972;8.242;2022-08-25T18:56:16;4.55;;;3.40;;
47856;SDS011;33618;49.972;8.242;2022-08-25T18:58:45;13.85;;;12.45;;
47856;SDS011;33618;49.972;8.242;2022-08-25T19:01:13;6.05;;;5.00;;
47856;SDS011;33618;49.972;8.242;2022-08-25T19:03:42;5.13;;;3.47;;
47856;SDS011;33618;49.972;8.242;2022-08-25T19:06:09;11.30;;;7.50;;
47856;SDS011;33618;49.972;8.242;2022-08-25T19:08:36;4.20;;;3.80;;
47856;SDS011;33618;49.972;8.242;2022-08-25T19:11:08;3.88;;;3.35;;
47856;SDS011;33618;49.972;8.242;2022-08-25T19:13:36;3.97;;;3.58;;
47856;SDS011;33618;49.972;8.242;2022-08-25T19:16:29;4.32;;;3.50;;
47856;SDS011;33618;49.972;8.242;2022-08-25T19:19:05;4.13;;;3.60;;
47856;SDS011;33618;49.972;8.242;2022-08-25T19:21:34;3.70;;;3.40;;
47856;SDS011;33618;49.972;8.242;2022-08-25T19:24:05;11.00;;;3.40;;
47856;SDS011;33618;49.972;8.242;2022-08-25T19:26:34;5.15;;;3.90;;
47856;SDS011;33618;49.972;8.242;2022-08-25T19:29:06;4.88;;;3.60;;
47856;SDS011;33618;49.972;8.242;2022-08-25T19:31:37;3.75;;;3.45;;
47856;SDS011;33618;49.972;8.242;2022-08-25T19:34:07;5.97;;;3.83;;
47856;SDS011;33618;49.972;8.242;2022-08-25T19:36:36;5.80;;;3.70;;
47856;SDS011;33618;49.972;8.242;2022-08-25T19:39:05;4.43;;;3.90;;
47856;SDS011;33618;49.972;8.242;2022-08-25T19:45:07;4.53;;;3.40;;
47856;SDS011;33618;49.972;8.242;2022-08-25T19:47:37;5.50;;;3.70;;
47856;SDS011;33618;49.972;8.242;2022-08-25T19:50:06;3.95;;;3.55;;
47856;SDS011;33618;49.972;8.242;2022-08-25T19:52:34;4.30;;;3.72;;
47856;SDS011;33618;49.972;8.242;2022-08-25T19:55:08;6.15;;;3.70;;